Terminal Aerodrome Forecast
Issued by NWS

Home | Current Version | Previous Version | Text Only | Print | Product List | Glossary On
Versions: 1 2 3 4 5 6 7 8 9 10 11 12 13 14 15 16 17
000
FTUS42 KMLB 271731
TAFSUA
TAF
KSUA 271731Z 2718/2818 26010G17KT P6SM SCT030 SCT090
     FM280300 18005KT P6SM SCT030 BKN060
     FM280600 VRB04KT P6SM FEW025 BKN200
     FM281400 13007KT P6SM VCSH SCT015 BKN030=

USA.gov is the U.S. government's official web portal to all federal, state and local government web resources and services.